createdAt,value
2019-04-05T00:01:57.026Z,89.59
2019-04-05T00:04:26.892Z,90.07
2019-04-05T00:06:56.703Z,89.92
2019-04-05T00:09:26.447Z,89.77
2019-04-05T00:11:56.348Z,89.60
2019-04-05T00:14:26.263Z,89.16
2019-04-05T00:16:57.336Z,89.66
2019-04-05T00:19:27.153Z,89.19
2019-04-05T00:21:56.929Z,89.69
2019-04-05T00:24:26.882Z,90.10
2019-04-05T00:26:56.580Z,91.24
2019-04-05T00:29:26.281Z,92.68
2019-04-05T00:31:56.160Z,94.72
2019-04-05T00:34:25.997Z,95.05
2019-04-05T00:36:55.936Z,94.56
2019-04-05T00:39:25.758Z,94.73
2019-04-05T00:41:55.709Z,95.16
2019-04-05T00:44:25.602Z,95.80
2019-04-05T00:46:55.609Z,95.94
2019-04-05T00:49:25.535Z,96.51
2019-04-05T00:51:55.565Z,97.89
2019-04-05T00:54:25.505Z,97.66
2019-04-05T00:56:55.274Z,97.23
2019-04-05T00:59:25.090Z,97.26
2019-04-05T01:01:54.934Z,97.43
2019-04-05T01:04:24.716Z,97.45
2019-04-05T01:06:54.611Z,97.69
2019-04-05T01:09:24.562Z,97.74
2019-04-05T01:11:54.458Z,97.84
2019-04-05T01:14:26.387Z,98.18
2019-04-05T01:16:56.637Z,98.77
2019-04-05T01:19:29.220Z,99.62
2019-04-05T01:22:02.799Z,99.97
2019-04-05T01:24:32.739Z,100.00
2019-04-05T01:27:04.186Z,100.00
2019-04-05T01:29:34.174Z,100.00
2019-04-05T01:32:04.036Z,100.00
2019-04-05T01:34:33.957Z,100.00
2019-04-05T01:37:03.870Z,100.00
2019-04-05T01:39:33.788Z,100.00
2019-04-05T01:42:03.707Z,99.14
2019-04-05T01:44:33.773Z,98.37
2019-04-05T01:47:03.627Z,98.17
2019-04-05T01:49:33.544Z,99.41
2019-04-05T01:52:03.758Z,100.00
2019-04-05T01:54:33.596Z,100.00
2019-04-05T01:57:03.619Z,100.00
2019-04-05T01:59:33.466Z,100.00
2019-04-05T02:02:03.337Z,100.00
2019-04-05T02:04:33.150Z,100.00
2019-04-05T02:07:02.888Z,100.00
2019-04-05T02:09:33.319Z,100.00
2019-04-05T02:12:03.155Z,100.00
2019-04-05T02:14:33.119Z,100.00
2019-04-05T02:17:03.145Z,100.00
2019-04-05T02:19:33.019Z,100.00
2019-04-05T02:22:02.866Z,100.00
2019-04-05T02:24:33.921Z,100.00
2019-04-05T02:27:03.887Z,100.00
2019-04-05T02:29:33.761Z,100.00
2019-04-05T02:32:03.678Z,100.00
2019-04-05T02:34:33.746Z,100.00
2019-04-05T02:37:03.630Z,100.00
2019-04-05T02:39:33.426Z,100.00
2019-04-05T02:42:03.997Z,100.00
2019-04-05T02:44:34.583Z,100.00
2019-04-05T02:47:05.209Z,100.00
2019-04-05T02:49:36.063Z,100.00
2019-04-05T02:52:06.366Z,100.00
2019-04-05T02:54:36.990Z,100.00
2019-04-05T02:57:07.304Z,100.00
2019-04-05T02:59:37.553Z,100.00
2019-04-05T03:02:08.485Z,100.00
2019-04-05T03:04:39.275Z,100.00
2019-04-05T03:07:09.263Z,100.00
2019-04-05T03:09:39.382Z,100.00
2019-04-05T03:12:09.542Z,100.00
2019-04-05T03:14:40.111Z,100.00
2019-04-05T03:17:11.971Z,100.00
2019-04-05T03:19:43.884Z,100.00
2019-04-05T03:22:15.038Z,100.00
2019-04-05T03:24:46.989Z,100.00
2019-04-05T03:27:25.031Z,100.00
2019-04-05T03:29:55.145Z,100.00
2019-04-05T03:32:26.334Z,100.00
2019-04-05T03:34:57.184Z,100.00
2019-04-05T03:37:27.153Z,100.00
2019-04-05T03:39:57.145Z,100.00
2019-04-05T03:42:27.464Z,100.00
2019-04-05T03:44:57.647Z,100.00
2019-04-05T03:47:27.597Z,100.00
2019-04-05T03:49:58.111Z,100.00
2019-04-05T03:52:28.212Z,100.00
2019-04-05T03:54:58.056Z,100.00
2019-04-05T03:57:28.069Z,100.00
2019-04-05T03:59:58.142Z,100.00
2019-04-05T04:02:28.037Z,100.00
2019-04-05T04:04:57.876Z,100.00
2019-04-05T04:07:27.793Z,100.00
2019-04-05T04:09:57.760Z,100.00
2019-04-05T04:12:28.117Z,100.00
2019-04-05T04:15:14.251Z,100.00
2019-04-05T04:17:46.433Z,100.00
2019-04-05T04:20:32.587Z,100.00
2019-04-05T04:23:02.493Z,100.00
2019-04-05T04:25:32.530Z,100.00
2019-04-05T04:28:02.713Z,100.00
2019-04-05T04:30:33.554Z,100.00
2019-04-05T04:33:03.849Z,100.00
2019-04-05T04:35:33.812Z,100.00
2019-04-05T04:38:03.699Z,100.00
2019-04-05T04:40:34.590Z,100.00
2019-04-05T04:43:04.715Z,100.00
2019-04-05T04:45:34.886Z,100.00
2019-04-05T04:48:05.978Z,100.00
2019-04-05T04:50:36.802Z,100.00
2019-04-05T04:53:07.528Z,100.00
2019-04-05T04:55:37.880Z,100.00
2019-04-05T04:58:07.870Z,100.00
2019-04-05T05:00:37.989Z,100.00
2019-04-05T05:03:08.055Z,100.00
2019-04-05T05:05:37.917Z,100.00
2019-04-05T05:08:08.528Z,100.00
2019-04-05T05:10:38.713Z,100.00
2019-04-05T05:13:09.194Z,100.00
2019-04-05T05:15:39.004Z,100.00
2019-04-05T05:18:09.254Z,100.00
2019-04-05T05:20:39.158Z,100.00
2019-04-05T05:23:09.122Z,100.00
2019-04-05T05:25:39.062Z,100.00
2019-04-05T05:28:09.129Z,100.00
2019-04-05T05:30:39.180Z,100.00
2019-04-05T05:33:10.495Z,100.00
2019-04-05T05:35:40.744Z,100.00
2019-04-05T05:38:12.354Z,100.00
2019-04-05T05:40:41.997Z,100.00
2019-04-05T05:43:11.829Z,100.00
2019-04-05T05:45:41.824Z,100.00
2019-04-05T05:48:11.726Z,100.00
2019-04-05T05:50:41.797Z,100.00
2019-04-05T05:53:11.557Z,100.00
2019-04-05T05:55:41.278Z,100.00
2019-04-05T05:58:11.248Z,98.64
2019-04-05T06:00:41.061Z,97.28
2019-04-05T06:03:11.866Z,98.40
2019-04-05T06:05:41.750Z,99.35
2019-04-05T06:08:11.642Z,97.99
2019-04-05T06:10:41.555Z,97.16
2019-04-05T06:13:11.672Z,95.16
2019-04-05T06:15:41.425Z,94.45
2019-04-05T06:18:12.675Z,94.82
2019-04-05T06:20:42.818Z,92.19
2019-04-05T06:23:13.849Z,90.63
2019-04-05T06:25:43.558Z,89.92
2019-04-05T06:28:13.453Z,87.74
2019-04-05T06:30:43.465Z,86.68
2019-04-05T06:33:13.210Z,84.31
2019-04-05T06:35:43.002Z,82.20
2019-04-05T06:38:14.095Z,81.40
2019-04-05T06:40:43.964Z,79.90
2019-04-05T06:43:13.881Z,78.70
2019-04-05T06:45:43.864Z,77.57
2019-04-05T06:48:19.497Z,76.87
2019-04-05T06:50:47.335Z,75.59
2019-04-05T06:53:17.878Z,75.12
2019-04-05T06:55:47.663Z,75.22
2019-04-05T06:58:20.600Z,74.74
2019-04-05T07:00:56.972Z,74.09
2019-04-05T07:03:20.606Z,74.12
2019-04-05T07:05:50.510Z,74.07
2019-04-05T07:08:20.491Z,72.28
2019-04-05T07:10:50.345Z,71.63
2019-04-05T07:13:20.249Z,71.69
2019-04-05T07:15:50.126Z,70.52
2019-04-05T07:18:32.648Z,70.17
2019-04-05T07:20:51.676Z,70.04
2019-04-05T07:23:21.611Z,69.15
2019-04-05T07:25:51.384Z,69.71
2019-04-05T07:28:21.305Z,70.43
2019-04-05T07:30:51.181Z,70.72
2019-04-05T07:33:21.011Z,71.06
2019-04-05T07:35:51.032Z,71.34
2019-04-05T07:38:20.762Z,71.13
2019-04-05T07:40:50.567Z,72.00
2019-04-05T07:43:20.328Z,71.77
2019-04-05T07:45:50.209Z,70.68
2019-04-05T07:48:20.110Z,70.86
2019-04-05T07:50:50.179Z,71.05
2019-04-05T07:53:19.948Z,70.78
2019-04-05T07:55:49.967Z,69.99
2019-04-05T07:58:19.861Z,70.66
2019-04-05T08:00:52.170Z,71.08
2019-04-05T08:03:23.091Z,70.70
2019-04-05T08:05:53.731Z,69.04
2019-04-05T08:08:51.606Z,69.81
2019-04-05T08:11:23.338Z,69.82
2019-04-05T08:13:55.307Z,70.49
2019-04-05T08:16:26.336Z,71.24
2019-04-05T08:18:57.949Z,70.01
2019-04-05T08:21:27.655Z,68.92
2019-04-05T08:23:58.708Z,69.86
2019-04-05T08:26:28.618Z,69.33
2019-04-05T08:28:58.518Z,69.18
2019-04-05T08:31:29.622Z,69.11
2019-04-05T08:33:59.415Z,68.81
2019-04-05T08:36:29.286Z,69.87
2019-04-05T08:38:58.944Z,69.88
2019-04-05T08:41:28.734Z,69.23
2019-04-05T08:43:58.806Z,69.91
2019-04-05T08:46:28.561Z,70.21
2019-04-05T08:49:10.033Z,70.79
2019-04-05T08:51:30.026Z,68.83
2019-04-05T08:53:59.857Z,67.96
2019-04-05T08:56:29.691Z,68.92
2019-04-05T08:58:59.357Z,69.75
2019-04-05T09:01:29.276Z,68.63
2019-04-05T09:03:59.241Z,67.60
2019-04-05T09:06:29.110Z,65.39
2019-04-05T09:08:58.959Z,64.19
2019-04-05T09:11:28.703Z,63.18
2019-04-05T09:13:58.348Z,62.47
2019-04-05T09:16:28.162Z,63.39
2019-04-05T09:18:57.934Z,62.22
2019-04-05T09:21:27.786Z,63.08
2019-04-05T09:23:59.221Z,63.36
2019-04-05T09:26:29.441Z,64.86
2019-04-05T09:28:59.078Z,63.01
2019-04-05T09:31:28.890Z,63.08
2019-04-05T09:33:58.760Z,64.25
2019-04-05T09:36:28.450Z,63.69
2019-04-05T09:38:58.236Z,63.10
2019-04-05T09:41:28.102Z,63.32
2019-04-05T09:43:58.065Z,63.13
2019-04-05T09:46:27.808Z,63.97
2019-04-05T09:48:57.611Z,63.42
2019-04-05T09:51:27.473Z,63.84
2019-04-05T09:53:57.337Z,63.44
2019-04-05T09:56:28.530Z,64.37
2019-04-05T09:58:58.302Z,64.61
2019-04-05T10:01:28.102Z,64.98
2019-04-05T10:03:57.868Z,64.37
2019-04-05T10:06:27.631Z,64.55
2019-04-05T10:08:57.345Z,63.68
2019-04-05T10:11:27.281Z,62.87
2019-04-05T10:13:57.058Z,64.57
2019-04-05T10:16:26.904Z,63.52
2019-04-05T10:18:56.601Z,63.56
2019-04-05T10:21:26.455Z,63.64
2019-04-05T10:23:56.326Z,61.83
2019-04-05T10:26:26.148Z,62.95
2019-04-05T10:28:55.941Z,62.37
2019-04-05T10:31:25.678Z,61.14
2019-04-05T10:33:56.732Z,61.59
2019-04-05T10:36:26.543Z,62.30
2019-04-05T10:38:56.444Z,62.88
2019-04-05T10:41:26.310Z,62.34
2019-04-05T10:43:58.467Z,63.05
2019-04-05T10:46:28.028Z,63.95
2019-04-05T10:48:58.012Z,63.76
2019-04-05T10:51:27.771Z,62.71
2019-04-05T10:53:57.593Z,62.98
2019-04-05T10:56:28.845Z,63.76
2019-04-05T10:58:58.546Z,62.48
2019-04-05T11:01:28.377Z,62.05
2019-04-05T11:03:58.297Z,61.92
2019-04-05T11:06:28.492Z,62.32
2019-04-05T11:08:58.265Z,62.40
2019-04-05T11:11:28.021Z,62.20
2019-04-05T11:13:58.110Z,63.02
2019-04-05T11:16:27.852Z,63.21
2019-04-05T11:18:57.719Z,63.01
2019-04-05T11:21:27.384Z,63.56
2019-04-05T11:23:57.314Z,63.84
2019-04-05T11:26:27.116Z,63.88
2019-04-05T11:28:56.925Z,63.30
2019-04-05T11:31:26.898Z,62.50
2019-04-05T11:33:56.825Z,63.16
2019-04-05T11:36:26.779Z,62.98
2019-04-05T11:38:57.157Z,64.58
2019-04-05T11:41:28.750Z,65.58
2019-04-05T11:44:01.426Z,64.84
2019-04-05T11:46:32.375Z,64.57
2019-04-05T11:49:04.430Z,65.26
2019-04-05T11:51:34.740Z,66.15
2019-04-05T11:54:04.803Z,65.35
2019-04-05T11:56:34.718Z,66.86
2019-04-05T11:59:06.894Z,64.95
2019-04-05T12:01:45.298Z,64.97
2019-04-05T12:04:15.191Z,62.89
2019-04-05T12:06:45.051Z,62.94
2019-04-05T12:09:15.042Z,63.22
2019-04-05T12:11:46.365Z,64.59
2019-04-05T12:14:29.330Z,64.72
2019-04-05T12:16:48.074Z,63.35
2019-04-05T12:19:17.909Z,63.86
2019-04-05T12:21:47.829Z,64.10
2019-04-05T12:24:17.690Z,64.01
2019-04-05T12:26:48.359Z,63.72
2019-04-05T12:29:18.122Z,62.31
2019-04-05T12:31:47.907Z,62.91
2019-04-05T12:34:21.529Z,63.21
2019-04-05T12:36:50.569Z,63.29
2019-04-05T12:39:20.919Z,63.53
2019-04-05T12:41:50.736Z,63.57
2019-04-05T12:44:20.608Z,64.77
2019-04-05T12:46:50.382Z,65.33
2019-04-05T12:49:20.198Z,62.57
2019-04-05T12:51:50.133Z,61.90
2019-04-05T12:54:20.024Z,62.03
2019-04-05T12:56:49.952Z,60.83
2019-04-05T12:59:19.750Z,60.15
2019-04-05T13:01:49.553Z,58.87
2019-04-05T13:04:21.311Z,56.61
2019-04-05T13:06:53.014Z,53.50
2019-04-05T13:09:23.535Z,53.57
2019-04-05T13:11:56.502Z,52.36
2019-04-05T13:14:26.482Z,52.56
2019-04-05T13:16:56.731Z,54.11
2019-04-05T13:19:28.546Z,54.25
2019-04-05T13:21:58.202Z,53.95
2019-04-05T13:24:27.957Z,54.74
2019-04-05T13:26:57.843Z,53.67
2019-04-05T13:29:27.681Z,54.13
2019-04-05T13:31:57.349Z,54.27
2019-04-05T13:34:27.297Z,55.04
2019-04-05T13:36:59.264Z,55.23
2019-04-05T13:39:29.697Z,54.62
2019-04-05T13:42:01.792Z,54.67
2019-04-05T13:44:32.453Z,53.88
2019-04-05T13:47:02.287Z,51.19
2019-04-05T13:49:32.223Z,52.32
2019-04-05T13:52:02.086Z,53.87
2019-04-05T13:54:31.953Z,53.32
2019-04-05T13:57:01.915Z,54.21
2019-04-05T13:59:32.041Z,52.69
2019-04-05T14:02:06.397Z,50.83
2019-04-05T14:04:33.706Z,50.58
2019-04-05T14:07:03.965Z,51.36
2019-04-05T14:09:33.818Z,50.54
2019-04-05T14:12:04.080Z,48.96
2019-04-05T14:14:33.837Z,50.84
2019-04-05T14:17:03.804Z,51.66
2019-04-05T14:19:33.678Z,53.80
2019-04-05T14:22:08.783Z,52.36
2019-04-05T14:24:36.707Z,52.18
2019-04-05T14:27:06.689Z,52.47
2019-04-05T14:29:36.398Z,52.92
2019-04-05T14:32:20.492Z,52.47
2019-04-05T14:34:37.684Z,53.04
2019-04-05T14:37:07.689Z,52.51
2019-04-05T14:39:38.784Z,52.06
2019-04-05T14:42:09.926Z,53.64
2019-04-05T14:44:41.792Z,53.53
2019-04-05T14:47:11.702Z,51.37
2019-04-05T14:49:41.496Z,50.97
2019-04-05T14:52:11.426Z,53.05
2019-04-05T14:54:43.287Z,53.28
2019-04-05T14:57:14.145Z,53.71
2019-04-05T14:59:43.940Z,54.13
2019-04-05T15:02:13.848Z,52.96
2019-04-05T15:04:43.734Z,52.26
2019-04-05T15:07:13.676Z,53.63
2019-04-05T15:09:43.520Z,56.00
2019-04-05T15:12:13.454Z,54.98
2019-04-05T15:14:43.329Z,54.47
2019-04-05T15:17:13.376Z,56.26
2019-04-05T15:19:43.163Z,57.55
2019-04-05T15:22:13.069Z,57.59
2019-04-05T15:24:44.595Z,56.46
2019-04-05T15:27:14.592Z,58.23
2019-04-05T15:29:44.596Z,58.74
2019-04-05T15:32:14.446Z,58.25
2019-04-05T15:34:44.301Z,57.00
2019-04-05T15:37:15.978Z,54.97
2019-04-05T15:39:45.878Z,56.05
2019-04-05T15:42:15.654Z,57.88
2019-04-05T15:44:45.524Z,59.02
2019-04-05T15:47:15.456Z,58.59
2019-04-05T15:49:45.400Z,57.73
2019-04-05T15:52:19.156Z,58.94
2019-04-05T15:54:46.617Z,61.01
2019-04-05T15:57:16.471Z,62.88
2019-04-05T15:59:46.127Z,64.36
2019-04-05T16:02:16.153Z,64.22
2019-04-05T16:04:46.001Z,64.44
2019-04-05T16:07:16.206Z,64.72
2019-04-05T16:09:45.814Z,67.28
2019-04-05T16:12:15.658Z,67.73
2019-04-05T16:14:46.895Z,68.82
2019-04-05T16:17:16.590Z,69.81
2019-04-05T16:19:46.427Z,71.71
2019-04-05T16:22:16.220Z,73.02
2019-04-05T16:24:46.133Z,73.62
2019-04-05T16:27:15.925Z,74.57
2019-04-05T16:29:45.717Z,74.93
2019-04-05T16:32:15.558Z,76.39
2019-04-05T16:34:45.502Z,77.63
2019-04-05T16:37:15.381Z,80.58
2019-04-05T16:39:46.475Z,83.48
2019-04-05T16:42:17.357Z,85.81
2019-04-05T16:44:47.083Z,87.36
2019-04-05T16:47:17.093Z,88.87
2019-04-05T16:49:46.727Z,90.83
2019-04-05T16:52:18.086Z,91.73
2019-04-05T16:54:48.009Z,91.46
2019-04-05T16:57:17.812Z,92.10
2019-04-05T16:59:47.688Z,92.48
2019-04-05T17:02:17.652Z,92.55
2019-04-05T17:04:47.454Z,93.19
2019-04-05T17:07:17.466Z,93.18
2019-04-05T17:09:47.277Z,92.86
2019-04-05T17:12:17.363Z,92.96
2019-04-05T17:14:47.346Z,92.09
2019-04-05T17:17:17.257Z,93.12
2019-04-05T17:19:46.999Z,95.22
2019-04-05T17:22:16.890Z,96.45
2019-04-05T17:24:46.695Z,97.36
2019-04-05T17:30:52.940Z,98.18
2019-04-05T17:34:05.401Z,96.84
2019-04-05T17:37:49.048Z,95.46
2019-04-05T17:40:20.762Z,95.68
2019-04-05T17:43:22.135Z,96.81
2019-04-05T17:46:17.692Z,97.71
2019-04-05T17:50:01.011Z,98.91
2019-04-05T17:53:31.290Z,99.16
2019-04-05T17:56:28.193Z,99.61
2019-04-05T18:02:11.871Z,98.26
2019-04-05T18:04:42.942Z,96.33
2019-04-05T18:07:12.850Z,94.67
2019-04-05T18:09:42.770Z,94.43
2019-04-05T18:12:12.812Z,94.66
2019-04-05T18:14:42.800Z,95.43
2019-04-05T18:17:13.216Z,95.87
2019-04-05T18:19:43.233Z,94.63
2019-04-05T18:22:13.242Z,94.34
2019-04-05T18:24:43.203Z,94.56
2019-04-05T18:27:12.958Z,95.22
2019-04-05T18:29:42.643Z,95.54
2019-04-05T18:32:12.878Z,95.54
2019-04-05T18:34:42.784Z,95.55
2019-04-05T18:37:12.668Z,94.86
2019-04-05T18:39:42.490Z,94.57
2019-04-05T18:42:12.525Z,95.47
2019-04-05T18:44:43.684Z,96.41
2019-04-05T18:47:13.731Z,96.98
2019-04-05T18:49:43.693Z,96.54
2019-04-05T18:52:13.684Z,94.87
2019-04-05T18:54:43.725Z,93.82
2019-04-05T18:57:14.305Z,93.05
2019-04-05T18:59:44.439Z,92.34
2019-04-05T19:02:14.234Z,94.15
2019-04-05T19:04:45.386Z,94.46
2019-04-05T19:07:15.305Z,94.82
2019-04-05T19:09:45.077Z,95.37
2019-04-05T19:12:15.084Z,95.48
2019-04-05T19:14:44.806Z,95.61
2019-04-05T19:17:23.831Z,95.88
2019-04-05T19:19:46.084Z,94.69
2019-04-05T19:22:15.909Z,94.32
2019-04-05T19:24:47.433Z,94.76
2019-04-05T19:27:17.147Z,94.90
2019-04-05T19:29:46.889Z,91.24
2019-04-05T19:49:59.718Z,93.30
2019-04-05T19:52:29.635Z,93.30
2019-04-05T19:54:59.593Z,94.73
2019-04-05T19:57:29.474Z,95.61
2019-04-05T19:59:59.395Z,96.64
2019-04-05T20:02:29.235Z,97.35
2019-04-05T20:04:59.123Z,97.45
2019-04-05T20:07:28.922Z,97.48
2019-04-05T20:10:00.085Z,98.34
2019-04-05T20:12:30.113Z,98.79
2019-04-05T20:14:59.914Z,97.72
2019-04-05T20:17:29.683Z,97.91
2019-04-05T20:19:59.423Z,98.22
2019-04-05T20:22:29.259Z,98.17
2019-04-05T20:24:59.014Z,98.42
2019-04-05T20:27:28.998Z,97.10
2019-04-05T20:29:58.899Z,94.62
2019-04-05T20:32:29.991Z,92.81
2019-04-05T20:34:59.663Z,90.92
2019-04-05T20:37:29.629Z,88.57
2019-04-05T20:39:59.488Z,89.65
2019-04-05T20:42:29.530Z,88.44
2019-04-05T20:44:59.387Z,90.63
2019-04-05T20:47:29.240Z,92.67
2019-04-05T20:50:00.270Z,95.95
2019-04-05T20:52:30.365Z,97.49
2019-04-05T20:55:00.102Z,98.84
2019-04-05T20:57:29.913Z,98.56
2019-04-05T20:59:59.810Z,97.99
2019-04-05T21:02:29.563Z,97.91
2019-04-05T21:04:59.455Z,97.37
2019-04-05T21:07:29.456Z,95.94
2019-04-05T21:09:59.424Z,93.84
2019-04-05T21:12:29.215Z,94.00
2019-04-05T21:14:59.213Z,95.01
2019-04-05T21:17:29.043Z,95.83
2019-04-05T21:19:58.997Z,95.32
2019-04-05T21:22:29.053Z,94.29
2019-04-05T21:24:58.996Z,94.95
2019-04-05T21:27:28.825Z,95.71
2019-04-05T21:29:58.683Z,96.49
2019-04-05T21:32:28.569Z,96.10
2019-04-05T21:34:58.470Z,96.89
2019-04-05T21:37:29.437Z,97.11
2019-04-05T21:39:59.334Z,94.68
2019-04-05T21:42:29.253Z,92.63
2019-04-05T21:44:59.202Z,92.34
2019-04-05T21:47:29.145Z,88.92
2019-04-05T21:49:59.016Z,84.85
2019-04-05T21:52:28.912Z,83.04
2019-04-05T21:54:58.864Z,80.80
2019-04-05T21:57:28.865Z,80.37
2019-04-05T21:59:58.654Z,79.74
2019-04-05T22:02:29.430Z,78.69
2019-04-05T22:05:01.226Z,78.17
2019-04-05T22:07:30.783Z,77.66
2019-04-05T22:10:00.492Z,77.25
2019-04-05T22:12:30.342Z,77.84
2019-04-05T22:15:00.126Z,77.44
2019-04-05T22:17:29.913Z,77.85
2019-04-05T22:19:59.781Z,77.99
2019-04-05T22:22:29.762Z,77.98
2019-04-05T22:24:59.792Z,77.65
2019-04-05T22:27:29.854Z,78.17
2019-04-05T22:29:59.717Z,78.48
2019-04-05T22:32:29.615Z,78.79
2019-04-05T22:34:59.582Z,78.80
2019-04-05T22:37:29.437Z,78.82
2019-04-05T22:39:59.071Z,79.31
2019-04-05T22:42:28.895Z,79.49
2019-04-05T22:44:58.845Z,80.06
2019-04-05T22:47:28.635Z,80.08
2019-04-05T22:49:58.422Z,80.62
2019-04-05T22:52:28.342Z,80.62
2019-04-05T22:54:58.260Z,80.67
2019-04-05T22:57:28.161Z,81.25
2019-04-05T22:59:57.902Z,81.00
2019-04-05T23:02:27.950Z,80.62
2019-04-05T23:04:57.735Z,80.59
2019-04-05T23:07:27.666Z,79.76
2019-04-05T23:09:58.714Z,79.52
2019-04-05T23:12:28.591Z,79.25
2019-04-05T23:14:58.316Z,78.15
2019-04-05T23:17:28.190Z,77.61
2019-04-05T23:19:58.139Z,77.55
2019-04-05T23:22:27.974Z,77.96
2019-04-05T23:24:57.723Z,77.91
2019-04-05T23:27:27.570Z,77.94
2019-04-05T23:29:57.738Z,78.19
2019-04-05T23:32:27.465Z,78.05
2019-04-05T23:34:57.208Z,77.98
2019-04-05T23:37:27.091Z,78.19
2019-04-05T23:39:56.845Z,77.70
2019-04-05T23:42:26.702Z,77.86
2019-04-05T23:44:56.619Z,77.83
2019-04-05T23:47:26.454Z,77.91
2019-04-05T23:49:56.339Z,77.65
2019-04-05T23:52:26.154Z,77.80
2019-04-05T23:54:56.006Z,77.70
2019-04-05T23:57:25.882Z,77.48
2019-04-05T23:59:55.813Z,77.86
